Flight Track Log - Related Links

Times and Time Zones

All times are in EDT time to prevent confusion due to time zone crossing. See the RPA3457 flight status page for this flight to view local times or setup timezone preferences in your user account.

Time Position Orientation Groundspeed Altitude Reporting Facility
EDT Latitude Longitude Course Direction KTS MPH feet Rate Location/Type
Tue 07:59:00 AM 44.1650 -73.2632 195° South  Level FlightAware
Tue 07:59:52 AM 44.3089 -73.1797 198° South 245 282 9,700  Level Boston Center
Tue 08:00:00 AM 44.0638 -73.3009 194° South  Level FlightAware
Tue 08:00:49 AM 44.2400 -73.2081 196° South 258 297 10,100  Level Boston Center
Tue 08:01:00 AM 43.9620 -73.3349 194° South  Level FlightAware
Tue 08:01:50 AM 44.1608 -73.2214 187° South 279 321 13,100  Level Boston Center
Tue 08:02:00 AM 43.8606 -73.3711 195° South  Level FlightAware
Tue 08:02:52 AM 44.0772 -73.2319 185° South 296 341 15,900  Level Boston Center
Tue 08:03:00 AM 43.7595 -73.4090 195° South  Level FlightAware
Tue 08:03:51 AM 43.9897 -73.2453 186° South 307 353 17,900  Level Boston Center
Tue 08:04:00 AM 43.6584 -73.4469 195° South  Level FlightAware
Tue 08:04:51 AM 43.8917 -73.2583 185° South 340 391 20,200  Level Boston Center
Tue 08:05:00 AM 43.5588 -73.4915 198° South  Level FlightAware
Tue 08:05:51 AM 43.7978 -73.2686 185° South 351 404 22,400  Level Boston Center
Tue 08:06:52 AM 43.6936 -73.2842 186° South 361 415 24,100 1,750 Climbing Boston Center
Tue 08:07:51 AM 43.5975 -73.2972 186° South 380 437 25,900 1,744 Climbing Boston Center
Tue 08:08:49 AM 43.4892 -73.3100 185° South 386 444 27,500 1,576 Climbing Boston Center
Tue 08:09:49 AM 43.3681 -73.3283 186° South 392 451 29,000 1,289 Climbing Boston Center
Tue 08:10:50 AM 43.2533 -73.3408 185° South 404 465 30,100 1,131 Climbing Boston Center
Tue 08:11:51 AM 43.1617 -73.3539 186° South 416 479 31,300 958 Climbing Boston Center
Tue 08:12:49 AM 43.0511 -73.3750 188° South 428 493 32,000 318 Climbing Boston Center
Tue 08:14:03 AM 42.9172 -73.4097 191° South 428 493 32,000 45 Level Boston Center
Tue 08:15:03 AM 42.7772 -73.4442 190° South 415 478 32,100 347 Climbing Boston Center
Tue 08:16:04 AM 42.6644 -73.4706 190° South 410 472 32,700 738 Climbing Boston Center
Tue 08:17:13 AM 42.5581 -73.4942 189° South 416 479 33,700 600 Climbing Boston Center
Tue 08:18:14 AM 42.4244 -73.5231 189° South 416 479 34,000 149 Climbing Boston Center
Tue 08:19:14 AM 42.3139 -73.5378 186° South 416 479 34,000  Level Boston Center
Tue 08:20:14 AM 42.2011 -73.5667 191° South 410 472 34,000  Level Boston Center
Tue 08:21:13 AM 42.0842 -73.5786 184° South 415 478 34,000 -50 Level Boston Center
Tue 08:22:13 AM 41.9614 -73.5681 176° South 427 491 33,900 -443 Descending Boston Center
Tue 08:23:15 AM 41.8425 -73.5575 176° South 427 491 33,100 -800 Descending Boston Center
Tue 08:24:13 AM 41.7281 -73.5472 176° South 427 491 32,300 -814 Descending Boston Center
Tue 08:25:13 AM 41.6114 -73.5369 176° South 422 486 31,500 -818 Descending Boston Center
Tue 08:26:47 AM 41.4506 -73.5972 196° South 410 472 30,200 -852 Descending New Center
Tue 08:27:48 AM 41.3531 -73.6650 208° Southwest 399 459 29,300 -843 Descending New Center
Tue 08:28:48 AM 41.2558 -73.7297 207° Southwest 399 459 28,500 -661 Descending New Center
Tue 08:29:46 AM 41.1603 -73.8025 210° Southwest 399 459 28,000 -254 Descending New Center
Tue 08:30:46 AM 41.0886 -73.9094 228° Southwest 394 453 28,000  Level New Center
Tue 08:31:47 AM 41.0211 -74.0219 232° Southwest 389 448 28,000  Level New Center
Tue 08:32:48 AM 40.9556 -74.1314 232° Southwest 395 455 28,000  Level New Center
Tue 08:33:49 AM 40.8814 -74.2483 230° Southwest 389 448 28,000  Level New Center
Tue 08:34:46 AM 40.8178 -74.3547 232° Southwest 389 448 28,000  Level New Center
Tue 08:35:46 AM 40.7561 -74.4611 233° Southwest 383 441 28,000  Level New Center
Tue 08:36:48 AM 40.6903 -74.5644 230° Southwest 378 435 28,000  Level New Center
Tue 08:37:46 AM 40.6386 -74.6792 239° Southwest 373 429 28,000 -101 Level New Center
Tue 08:38:47 AM 40.5931 -74.7939 242° Southwest 368 423 27,800 -443 Descending New Center
Tue 08:39:48 AM 40.5414 -74.9056 239° Southwest 362 417 27,100 -756 Descending New Center
Tue 08:40:46 AM 40.4650 -74.9967 222° Southwest 362 417 26,300 -807 Descending New Center
Tue 08:41:47 AM 40.3931 -75.0875 224° Southwest 367 422 25,500 -787 Descending New Center
Tue 08:42:48 AM 40.3186 -75.1808 224° Southwest 367 422 24,700 -793 Descending New Center
Tue 08:43:48 AM 40.2486 -75.2717 225° Southwest 367 422 23,900 -814 Descending New Center
Tue 08:44:46 AM 40.1764 -75.3619 224° Southwest 367 422 23,100 -807 Descending New Center
Tue 08:45:47 AM 40.1064 -75.4469 223° Southwest 367 422 22,300 -541 Descending New Center
Tue 08:46:48 AM 40.0361 -75.5317 223° Southwest 361 415 22,000 -151 Descending New Center
Tue 08:47:46 AM 39.9725 -75.6086 223° Southwest 355 409 22,000  Level New Center
Tue 08:48:46 AM 39.9086 -75.6961 226° Southwest 350 403 22,000 -150 Level New Center
Tue 08:49:46 AM 39.8608 -75.7903 237° Southwest 333 383 21,700 -545 Descending New Center
Tue 08:50:47 AM 39.8064 -75.8892 234° Southwest 333 383 20,900 -787 Descending New Center
Tue 08:51:48 AM 39.7625 -75.9858 239° Southwest 328 377 20,100 -807 Descending New Center
Tue 08:52:46 AM 39.7642 -76.0939 271° West 301 346 19,300 -857 Descending New Center
Tue 08:53:47 AM 39.7692 -76.2106 273° West 292 336 18,400 -685 Descending New Center
Tue 08:55:50 AM 39.7167 -76.4167 252° West 295 339 17,200 -721 Descending Potomac TRACON
Tue 08:56:50 AM 39.6667 -76.4833 226° Southwest 308 354 16,200 -1,700 Descending Potomac TRACON
Tue 08:57:50 AM 39.5833 -76.5167 197° South 320 368 13,800 -2,191 Descending Potomac TRACON
Tue 08:58:45 AM 39.5000 -76.5500 197° South 316 364 12,000 -939 Descending Potomac TRACON
Tue 08:59:45 AM 39.4167 -76.5833 197° South 289 333 12,000  Level Potomac TRACON
Tue 09:00:45 AM 39.3333 -76.6000 189° South 292 336 12,000 -100 Level Potomac TRACON
Tue 09:01:45 AM 39.2667 -76.6333 201° Southwest 259 298 11,800 -684 Descending Potomac TRACON
Tue 09:02:39 AM 39.2167 -76.6500 194° South 258 297 10,700 -947 Descending Potomac TRACON
Tue 09:03:39 AM 39.1500 -76.6833 201° Southwest 241 277 10,000 -368 Descending Potomac TRACON
Tue 09:04:33 AM 39.1000 -76.7333 218° Southwest 224 258 10,000 -316 Level Potomac TRACON
Tue 09:05:33 AM 39.0667 -76.7833 229° Southwest 212 244 9,400 -684 Descending Potomac TRACON
Tue 09:06:27 AM 39.0167 -76.8333 218° Southwest 210 242 8,700 -737 Descending Potomac TRACON
Tue 09:07:27 AM 39.0333 -76.9167 284° West 207 238 8,000 -350 Descending Potomac TRACON
Tue 09:08:27 AM 39.0667 -76.9833 303° West 204 235 8,000 50 Level Potomac TRACON
Tue 09:09:27 AM 39.0833 -77.0500 288° West 210 242 8,100 -50 Climbing Potomac TRACON
Tue 09:10:28 AM 39.0333 -77.0333 165° South 222 255 7,900 -522 Descending Potomac TRACON
Tue 09:11:22 AM 39.0000 -76.9833 131° Southeast 208 239 7,100 -474 Descending Potomac TRACON
Tue 09:12:22 AM 38.9500 -76.9333 142° Southeast 207 238 7,000 -250 Descending Potomac TRACON
Tue 09:13:22 AM 38.9167 -76.9000 142° Southeast 193 222 6,600 -522 Descending Potomac TRACON
Tue 09:14:17 AM 38.8833 -76.9333 218° Southwest 209 241 6,000 -313 Descending Potomac TRACON
Tue 09:15:17 AM 38.9333 -76.9667 333° Northwest 201 231 6,000  Level Potomac TRACON
Tue 09:16:11 AM 38.9833 -76.9833 345° North 198 228 6,000  Level Potomac TRACON
Tue 09:17:11 AM 39.0333 -77.0167 333° Northwest 199 229 6,000 -500 Level Potomac TRACON
Tue 09:18:11 AM 39.0500 -77.0833 288° West 182 209 5,000 -1,100 Descending Potomac TRACON
Tue 09:19:11 AM 39.0500 -77.1500 270° West 173 199 3,800 -850 Descending Potomac TRACON
Tue 09:20:11 AM 39.0167 -77.1833 218° Southwest 148 170 3,300 -500 Descending Potomac TRACON
Tue 09:21:11 AM 38.9833 -77.1667 159° South 150 173 2,800 -500 Descending Potomac TRACON

Login

Don't have an account? Register now (free) for customized features, flight alerts, and more!